sensor_id;sensor_type;location;lat;lon;timestamp;P1;durP1;ratioP1;P2;durP2;ratioP2
72674;SDS011;60752;53.962;9.614;2023-04-12T00:03:16;7.97;;;3.10;;
72674;SDS011;60752;53.962;9.614;2023-04-12T00:33:18;11.17;;;3.97;;
72674;SDS011;60752;53.962;9.614;2023-04-12T01:03:20;9.55;;;4.32;;
72674;SDS011;60752;53.962;9.614;2023-04-12T01:33:22;12.87;;;4.43;;
72674;SDS011;60752;53.962;9.614;2023-04-12T02:03:25;15.60;;;3.87;;
72674;SDS011;60752;53.962;9.614;2023-04-12T02:33:28;8.73;;;2.47;;
72674;SDS011;60752;53.962;9.614;2023-04-12T03:03:29;5.27;;;2.27;;
72674;SDS011;60752;53.962;9.614;2023-04-12T03:33:31;6.50;;;1.90;;
72674;SDS011;60752;53.962;9.614;2023-04-12T04:03:33;4.27;;;1.47;;
72674;SDS011;60752;53.962;9.614;2023-04-12T04:33:35;4.23;;;1.60;;
72674;SDS011;60752;53.962;9.614;2023-04-12T05:03:37;3.17;;;1.17;;
72674;SDS011;60752;53.962;9.614;2023-04-12T05:33:39;5.60;;;1.27;;
72674;SDS011;60752;53.962;9.614;2023-04-12T06:03:41;5.13;;;1.30;;
72674;SDS011;60752;53.962;9.614;2023-04-12T06:33:42;4.47;;;1.13;;
72674;SDS011;60752;53.962;9.614;2023-04-12T07:03:44;5.23;;;1.27;;
72674;SDS011;60752;53.962;9.614;2023-04-12T07:33:46;5.87;;;1.70;;
72674;SDS011;60752;53.962;9.614;2023-04-12T08:03:48;4.70;;;1.67;;
72674;SDS011;60752;53.962;9.614;2023-04-12T08:33:50;6.50;;;1.63;;
72674;SDS011;60752;53.962;9.614;2023-04-12T09:03:51;4.63;;;1.67;;
72674;SDS011;60752;53.962;9.614;2023-04-12T09:33:53;4.70;;;1.50;;
72674;SDS011;60752;53.962;9.614;2023-04-12T10:04:06;4.30;;;1.30;;
72674;SDS011;60752;53.962;9.614;2023-04-12T10:34:11;4.97;;;1.63;;
72674;SDS011;60752;53.962;9.614;2023-04-12T11:04:14;6.22;;;2.00;;
72674;SDS011;60752;53.962;9.614;2023-04-12T11:34:17;5.90;;;2.20;;
72674;SDS011;60752;53.962;9.614;2023-04-12T12:04:19;4.00;;;2.03;;
72674;SDS011;60752;53.962;9.614;2023-04-12T12:34:26;4.57;;;1.50;;
72674;SDS011;60752;53.962;9.614;2023-04-12T13:04:32;4.80;;;1.93;;
72674;SDS011;60752;53.962;9.614;2023-04-12T13:34:34;4.50;;;2.20;;
72674;SDS011;60752;53.962;9.614;2023-04-12T14:04:36;5.40;;;2.17;;
72674;SDS011;60752;53.962;9.614;2023-04-12T14:34:49;6.80;;;2.60;;
72674;SDS011;60752;53.962;9.614;2023-04-12T15:04:51;5.20;;;2.67;;
72674;SDS011;60752;53.962;9.614;2023-04-12T15:34:53;6.13;;;2.70;;
72674;SDS011;60752;53.962;9.614;2023-04-12T16:04:55;7.37;;;3.90;;
72674;SDS011;60752;53.962;9.614;2023-04-12T16:34:57;6.73;;;3.23;;
72674;SDS011;60752;53.962;9.614;2023-04-12T17:04:59;7.40;;;3.57;;
72674;SDS011;60752;53.962;9.614;2023-04-12T17:35:01;7.40;;;3.67;;
72674;SDS011;60752;53.962;9.614;2023-04-12T18:05:03;7.07;;;3.83;;
72674;SDS011;60752;53.962;9.614;2023-04-12T18:35:06;10.53;;;5.00;;
72674;SDS011;60752;53.962;9.614;2023-04-12T19:05:08;8.93;;;4.37;;
72674;SDS011;60752;53.962;9.614;2023-04-12T19:35:11;4.60;;;1.80;;
72674;SDS011;60752;53.962;9.614;2023-04-12T20:05:13;3.20;;;1.20;;
72674;SDS011;60752;53.962;9.614;2023-04-12T20:35:15;4.30;;;1.70;;
72674;SDS011;60752;53.962;9.614;2023-04-12T21:05:17;7.97;;;2.90;;
72674;SDS011;60752;53.962;9.614;2023-04-12T21:35:18;11.47;;;3.33;;
72674;SDS011;60752;53.962;9.614;2023-04-12T22:05:20;12.80;;;4.50;;
72674;SDS011;60752;53.962;9.614;2023-04-12T22:35:22;9.03;;;3.90;;
72674;SDS011;60752;53.962;9.614;2023-04-12T23:05:24;13.03;;;3.73;;
72674;SDS011;60752;53.962;9.614;2023-04-12T23:35:26;6.17;;;2.80;;
